Time;durP1;ratioP1;P1;durP2;ratioP2;P2;SDS_P1;SDS_P2;PMS_P1;PMS_P2;Temp;Humidity;BMP_temperature;BMP_pressure;BME280_temperature;BME280_humidity;BME280_pressure;Samples;Min_cycle;Max_cycle;Signal;HPM_P1;HPM_P2
2021/04/12 00:00:33;;;;;;;2.10;1.43;;;5.40;99.90;;;;;;5066919;28;20629;-63
2021/04/12 00:03:13;;;;;;;2.10;1.50;;;5.40;99.90;;;;;;5060269;28;20634;-64
2021/04/12 00:05:49;;;;;;;1.47;1.20;;;5.30;99.90;;;;;;5064370;28;20708;-62
2021/04/12 00:08:31;;;;;;;1.97;1.23;;;5.30;99.90;;;;;;5056751;28;20679;-64
2021/04/12 00:11:18;;;;;;;2.63;1.30;;;5.30;99.90;;;;;;5054495;28;20668;-64
2021/04/12 00:13:58;;;;;;;2.30;1.20;;;5.20;99.90;;;;;;5056091;28;20705;-64
2021/04/12 00:16:46;;;;;;;3.97;1.50;;;5.20;99.90;;;;;;5061736;28;20613;-65
2021/04/12 00:19:21;;;;;;;1.50;1.10;;;5.20;99.90;;;;;;5074637;28;20705;-64
2021/04/12 00:22:11;;;;;;;3.20;1.47;;;5.40;99.90;;;;;;5061707;28;20645;-64
2021/04/12 00:24:57;;;;;;;2.33;1.03;;;5.40;99.90;;;;;;5060220;28;20642;-64
2021/04/12 00:27:44;;;;;;;1.60;1.10;;;5.30;99.90;;;;;;5061412;28;20608;-62
2021/04/12 00:30:33;;;;;;;3.10;1.17;;;5.20;99.90;;;;;;5072365;28;20633;-63
2021/04/12 00:33:06;;;;;;;3.03;1.40;;;5.10;99.90;;;;;;5054208;28;20937;-64
2021/04/12 00:35:40;;;;;;;2.93;1.50;;;5.00;99.90;;;;;;5058705;28;20645;-64
2021/04/12 00:38:32;;;;;;;1.23;1.13;;;5.00;99.90;;;;;;5060316;28;20704;-64
2021/04/12 00:41:16;;;;;;;1.77;0.90;;;5.10;99.90;;;;;;5059541;28;20652;-64
2021/04/12 00:43:58;;;;;;;1.60;1.10;;;5.00;99.90;;;;;;5063040;28;20683;-64
2021/04/12 00:46:46;;;;;;;2.00;1.30;;;4.90;99.90;;;;;;5061128;28;20586;-64
2021/04/12 00:49:45;;;;;;;3.90;1.20;;;4.90;99.90;;;;;;5058842;28;20636;-62
2021/04/12 00:52:51;;;;;;;3.40;1.20;;;4.80;99.90;;;;;;5058858;28;20641;-64
2021/04/12 00:55:23;;;;;;;1.27;1.17;;;4.80;99.90;;;;;;5056328;28;20651;-64
2021/04/12 00:58:11;;;;;;;3.33;1.30;;;4.90;99.90;;;;;;5056100;28;20609;-63
2021/04/12 01:00:45;;;;;;;2.97;1.30;;;4.80;99.90;;;;;;5052253;28;21077;-64
2021/04/12 01:03:30;;;;;;;1.00;1.00;;;4.70;99.90;;;;;;5052166;28;21007;-64
2021/04/12 01:06:35;;;;;;;3.70;1.53;;;4.80;99.90;;;;;;5055132;28;20597;-64
2021/04/12 01:09:29;;;;;;;2.27;1.10;;;4.80;99.90;;;;;;5034108;28;20785;-63
2021/04/12 01:12:35;;;;;;;2.60;1.50;;;4.80;99.90;;;;;;5012738;28;20648;-64
2021/04/12 01:15:27;;;;;;;3.33;1.53;;;4.80;99.90;;;;;;5054254;28;20629;-63
2021/04/12 01:18:10;;;;;;;3.13;1.40;;;4.70;99.90;;;;;;5057939;28;20757;-66
2021/04/12 01:21:09;;;;;;;3.10;1.63;;;4.70;99.90;;;;;;5052465;28;20653;-64
2021/04/12 01:24:01;;;;;;;5.17;1.63;;;4.70;99.90;;;;;;5039659;28;20718;-64
2021/04/12 01:27:04;;;;;;;4.43;1.40;;;4.60;99.90;;;;;;5069819;28;20708;-64
2021/04/12 01:29:51;;;;;;;2.90;1.23;;;4.70;99.90;;;;;;5062649;28;20747;-64
2021/04/12 01:32:59;;;;;;;1.30;1.20;;;4.70;99.90;;;;;;5057026;28;20638;-64
2021/04/12 01:36:02;;;;;;;1.57;1.20;;;4.60;99.90;;;;;;5077704;28;20654;-64
2021/04/12 01:38:55;;;;;;;2.10;1.37;;;4.50;99.90;;;;;;5065910;28;20633;-63
2021/04/12 01:41:32;;;;;;;5.00;1.53;;;4.40;99.90;;;;;;5052597;28;20778;-64
2021/04/12 01:44:13;;;;;;;3.30;1.20;;;4.40;99.90;;;;;;5054778;28;20647;-64
2021/04/12 01:46:55;;;;;;;2.73;1.23;;;4.40;99.90;;;;;;5059414;28;20712;-63
2021/04/12 01:49:41;;;;;;;2.23;1.20;;;4.40;99.90;;;;;;5051962;28;20697;-62
2021/04/12 01:52:31;;;;;;;2.60;1.67;;;4.30;99.90;;;;;;5054981;28;20645;-64
2021/04/12 01:55:22;;;;;;;1.57;1.30;;;4.30;99.90;;;;;;5052109;28;20657;-64
2021/04/12 01:58:03;;;;;;;3.93;1.60;;;4.40;99.90;;;;;;5061628;28;20578;-63
2021/04/12 02:00:44;;;;;;;4.80;1.60;;;4.40;99.90;;;;;;5056427;28;21032;-63
2021/04/12 02:03:29;;;;;;;3.33;1.60;;;4.40;99.90;;;;;;5054472;28;21004;-63
2021/04/12 02:06:03;;;;;;;2.27;1.60;;;4.40;99.90;;;;;;5053766;28;20628;-64
2021/04/12 02:08:51;;;;;;;5.27;2.00;;;4.40;99.90;;;;;;5049333;28;20739;-63
2021/04/12 02:11:45;;;;;;;3.10;1.63;;;4.40;99.90;;;;;;5055754;28;20654;-64
2021/04/12 02:14:40;;;;;;;2.23;1.50;;;4.30;99.90;;;;;;5055099;28;20668;-64
2021/04/12 02:17:13;;;;;;;4.23;1.70;;;4.30;99.90;;;;;;5053073;28;20671;-64
2021/04/12 02:19:58;;;;;;;4.00;1.90;;;4.30;99.90;;;;;;5054325;28;20709;-65
2021/04/12 02:23:15;;;;;;;4.30;1.93;;;4.30;99.90;;;;;;5056668;28;20771;-63
2021/04/12 02:25:59;;;;;;;5.57;1.80;;;4.20;99.90;;;;;;5066743;28;20622;-64
2021/04/12 02:28:57;;;;;;;2.00;1.70;;;4.20;99.90;;;;;;5055101;28;20581;-63
2021/04/12 02:31:43;;;;;;;2.70;1.90;;;4.20;99.90;;;;;;5055385;28;20700;-62
2021/04/12 02:34:11;;;;;;;3.30;2.10;;;4.20;99.90;;;;;;5054320;28;22264;-64
2021/04/12 02:37:06;;;;;;;3.00;1.60;;;4.20;99.90;;;;;;5061893;28;20626;-63
2021/04/12 02:39:52;;;;;;;2.90;1.60;;;4.20;99.90;;;;;;5050515;28;20581;-63
2021/04/12 02:42:39;;;;;;;2.90;1.80;;;4.10;99.90;;;;;;5052342;28;20765;-64
2021/04/12 02:45:24;;;;;;;1.67;1.57;;;4.20;99.90;;;;;;5051469;28;20610;-63
2021/04/12 02:48:30;;;;;;;3.47;1.67;;;4.30;99.90;;;;;;5053448;28;20705;-64
2021/04/12 02:51:20;;;;;;;3.40;1.70;;;4.30;99.90;;;;;;5007442;28;20836;-65
2021/04/12 02:54:23;;;;;;;5.13;1.50;;;4.20;99.90;;;;;;5013491;28;20647;-66
2021/04/12 02:57:38;;;;;;;3.40;1.67;;;4.10;99.90;;;;;;5055540;28;20629;-64
2021/04/12 03:00:26;;;;;;;1.70;1.50;;;4.20;99.90;;;;;;5052127;28;21301;-64
2021/04/12 03:03:10;;;;;;;5.00;1.67;;;4.20;99.90;;;;;;5054894;28;20709;-64
2021/04/12 03:05:54;;;;;;;3.70;1.67;;;4.20;99.90;;;;;;5056749;28;20648;-64
2021/04/12 03:08:23;;;;;;;6.40;2.20;;;4.10;99.90;;;;;;5061718;28;20626;-64
2021/04/12 03:11:03;;;;;;;6.47;1.80;;;4.00;99.90;;;;;;5072147;22;21289;-61
2021/04/12 03:14:04;;;;;;;1.57;1.47;;;4.10;99.90;;;;;;5043659;28;21011;-63
2021/04/12 03:17:18;;;;;;;3.63;1.80;;;4.10;99.90;;;;;;5040543;28;20585;-61
2021/04/12 03:20:01;;;;;;;2.03;1.53;;;4.00;99.90;;;;;;5040819;28;20629;-61
2021/04/12 03:23:00;;;;;;;3.30;1.93;;;4.00;99.90;;;;;;5039416;28;20729;-61
2021/04/12 03:25:57;;;;;;;2.10;1.40;;;3.90;99.90;;;;;;5037700;28;20674;-62
2021/04/12 03:28:37;;;;;;;3.43;1.60;;;4.00;99.90;;;;;;5043190;28;20645;-62
2021/04/12 03:31:20;;;;;;;3.30;1.63;;;4.00;99.90;;;;;;5037906;28;20765;-62
2021/04/12 03:34:02;;;;;;;2.53;1.70;;;4.10;99.90;;;;;;5036975;28;21188;-63
2021/04/12 03:37:07;;;;;;;3.33;1.80;;;3.90;99.90;;;;;;5038260;28;20971;-62
2021/04/12 03:39:55;;;;;;;3.23;1.60;;;3.90;99.90;;;;;;5037911;28;20622;-62
2021/04/12 03:42:45;;;;;;;4.17;2.03;;;3.80;99.90;;;;;;5042907;28;20653;-62
2021/04/12 03:45:58;;;;;;;5.67;2.07;;;3.80;99.90;;;;;;5037977;28;20623;-62
2021/04/12 03:48:57;;;;;;;2.90;1.47;;;3.80;99.90;;;;;;5027236;28;21017;-60
2021/04/12 03:51:59;;;;;;;4.30;2.33;;;3.80;99.90;;;;;;5035610;28;20701;-60
2021/04/12 03:54:42;;;;;;;2.70;2.00;;;3.80;99.90;;;;;;5031876;28;21013;-60
2021/04/12 03:57:43;;;;;;;3.40;1.60;;;3.80;99.90;;;;;;5036544;28;21122;-60
2021/04/12 04:00:34;;;;;;;2.03;1.80;;;3.70;99.90;;;;;;5043367;28;20606;-60
2021/04/12 04:03:38;;;;;;;2.90;1.80;;;3.70;99.90;;;;;;5035922;28;20639;-59
2021/04/12 04:06:19;;;;;;;3.20;1.63;;;3.70;99.90;;;;;;5039537;28;20633;-60
2021/04/12 04:09:11;;;;;;;3.90;1.93;;;3.70;99.90;;;;;;5039479;28;21251;-58
2021/04/12 04:11:57;;;;;;;4.07;2.27;;;3.80;99.90;;;;;;5042209;28;20653;-59
2021/04/12 04:14:44;;;;;;;3.40;2.40;;;3.80;99.90;;;;;;5042442;28;20776;-60
2021/04/12 04:17:37;;;;;;;5.60;2.40;;;3.80;99.90;;;;;;5041725;28;20719;-60
2021/04/12 04:20:24;;;;;;;2.00;1.80;;;3.80;99.90;;;;;;5039068;28;20633;-60
2021/04/12 04:23:24;;;;;;;4.17;2.20;;;3.80;99.90;;;;;;5038929;28;20652;-60
2021/04/12 04:26:05;;;;;;;5.40;2.03;;;3.90;99.90;;;;;;5038877;28;20756;-60
2021/04/12 04:28:33;;;;;;;4.27;1.90;;;3.80;99.90;;;;;;5041524;28;20586;-60
2021/04/12 04:31:26;;;;;;;3.17;2.27;;;3.80;99.90;;;;;;5040646;28;21305;-60
2021/04/12 04:34:18;;;;;;;3.57;1.90;;;3.70;99.90;;;;;;5039477;28;20670;-58
2021/04/12 04:37:17;;;;;;;5.33;2.10;;;3.70;99.90;;;;;;5046453;28;20591;-59
2021/04/12 04:40:13;;;;;;;2.30;2.10;;;3.70;99.90;;;;;;5038268;28;20594;-58
2021/04/12 04:42:45;;;;;;;5.57;2.13;;;3.80;99.90;;;;;;5043548;28;20655;-59
2021/04/12 04:45:32;;;;;;;5.47;2.60;;;3.60;99.90;;;;;;5036199;28;20614;-59
2021/04/12 04:48:09;;;;;;;4.70;2.10;;;3.50;99.90;;;;;;5041490;28;20693;-59
2021/04/12 04:51:21;;;;;;;4.40;2.50;;;3.60;99.90;;;;;;5035012;28;20677;-60
2021/04/12 04:54:12;;;;;;;2.60;2.17;;;3.60;99.90;;;;;;5038400;28;20672;-59
2021/04/12 04:57:05;;;;;;;2.80;2.37;;;3.60;99.90;;;;;;5035465;28;20745;-59
2021/04/12 04:59:43;;;;;;;2.53;2.00;;;3.60;99.90;;;;;;5035031;28;20615;-59
2021/04/12 05:02:36;;;;;;;5.47;2.60;;;3.70;99.90;;;;;;5029047;28;20674;-59
2021/04/12 05:05:24;;;;;;;4.60;2.63;;;3.80;99.90;;;;;;5035313;28;20650;-62
2021/04/12 05:08:11;;;;;;;5.77;2.40;;;3.80;99.90;;;;;;5036346;28;21054;-62
2021/04/12 05:11:04;;;;;;;6.43;2.50;;;3.70;99.90;;;;;;5035526;28;20682;-61
2021/04/12 05:13:52;;;;;;;5.20;2.30;;;3.70;99.90;;;;;;5026512;28;21256;-61
2021/04/12 05:16:41;;;;;;;7.40;2.77;;;3.80;99.90;;;;;;5032468;28;20693;-62
2021/04/12 05:19:21;;;;;;;3.33;2.50;;;3.90;99.90;;;;;;5035382;28;20630;-61
2021/04/12 05:22:09;;;;;;;5.10;2.47;;;3.90;99.90;;;;;;5023586;28;21169;-61
2021/04/12 05:24:43;;;;;;;4.00;2.50;;;4.00;99.90;;;;;;5022275;28;20621;-63
2021/04/12 05:27:36;;;;;;;4.00;2.10;;;4.00;99.90;;;;;;5025428;28;20606;-63
2021/04/12 05:30:32;;;;;;;7.07;2.83;;;4.00;99.90;;;;;;5027397;28;20607;-66
2021/04/12 05:33:07;;;;;;;5.37;2.60;;;4.10;99.90;;;;;;5029844;28;20725;-62
2021/04/12 05:35:48;;;;;;;3.60;2.70;;;4.10;99.90;;;;;;5027447;28;20679;-65
2021/04/12 05:38:51;;;;;;;5.87;2.37;;;4.10;99.90;;;;;;5029783;28;20630;-62
2021/04/12 05:41:41;;;;;;;6.10;2.53;;;4.20;99.90;;;;;;5033028;28;20681;-64
2021/04/12 05:44:37;;;;;;;2.70;2.20;;;4.30;99.90;;;;;;5040097;28;20651;-63
2021/04/12 05:47:15;;;;;;;5.20;2.63;;;4.30;99.90;;;;;;5026466;28;20611;-61
2021/04/12 05:50:02;;;;;;;3.60;2.50;;;4.30;99.90;;;;;;5035376;28;21189;-60
2021/04/12 05:52:50;;;;;;;4.63;2.50;;;4.40;99.90;;;;;;5021455;28;20641;-60
2021/04/12 05:55:43;;;;;;;8.40;2.93;;;4.40;99.90;;;;;;5029982;28;20674;-59
2021/04/12 05:58:36;;;;;;;5.50;2.47;;;4.40;99.90;;;;;;5020289;28;20623;-60
2021/04/12 06:01:38;;;;;;;5.30;2.70;;;4.40;99.90;;;;;;5020891;28;20741;-63
2021/04/12 06:04:27;;;;;;;4.83;2.53;;;4.40;99.90;;;;;;5021316;28;20627;-64
2021/04/12 06:06:58;;;;;;;6.03;2.87;;;4.50;99.90;;;;;;5029021;28;20600;-64
2021/04/12 06:09:38;;;;;;;3.30;2.23;;;4.60;99.90;;;;;;5031676;28;21192;-64
2021/04/12 06:12:26;;;;;;;6.57;3.40;;;4.60;99.90;;;;;;5036731;28;20641;-62
2021/04/12 06:15:10;;;;;;;3.10;2.53;;;4.60;99.90;;;;;;5027312;28;21293;-62
2021/04/12 06:17:54;;;;;;;3.07;2.30;;;4.60;99.90;;;;;;5019689;28;20623;-62
2021/04/12 06:20:42;;;;;;;4.90;2.50;;;4.60;99.90;;;;;;5026943;28;21064;-65
2021/04/12 06:23:28;;;;;;;5.60;1.97;;;4.70;99.90;;;;;;5031811;28;21188;-63
2021/04/12 06:26:13;;;;;;;6.97;2.60;;;4.90;99.90;;;;;;5027629;28;20598;-66
2021/04/12 06:28:38;;;;;;;4.90;2.40;;;4.80;99.90;;;;;;5027509;28;20610;-63
2021/04/12 06:31:31;;;;;;;3.73;2.33;;;4.90;99.90;;;;;;5028492;28;21238;-64
2021/04/12 06:34:18;;;;;;;7.13;2.87;;;5.00;99.90;;;;;;5020142;28;20397;-64
2021/04/12 06:36:50;;;;;;;5.20;2.43;;;5.00;99.90;;;;;;5023439;28;21604;-62
2021/04/12 06:39:43;;;;;;;6.80;2.87;;;5.00;99.90;;;;;;5024581;28;20612;-62
2021/04/12 06:42:08;;;;;;;4.30;2.30;;;5.10;99.90;;;;;;5022890;28;20669;-64
2021/04/12 06:44:40;;;;;;;4.17;2.40;;;5.10;99.90;;;;;;5023258;28;20718;-59
2021/04/12 06:47:27;;;;;;;4.80;2.40;;;5.20;99.90;;;;;;5022901;28;20264;-59
2021/04/12 06:50:44;;;;;;;3.13;2.40;;;5.30;99.90;;;;;;5040805;28;20617;-60
2021/04/12 06:53:47;;;;;;;5.17;2.40;;;5.30;99.90;;;;;;5018864;28;20664;-60
2021/04/12 06:56:18;;;;;;;4.03;2.20;;;5.40;99.90;;;;;;5026921;28;20713;-59
2021/04/12 06:59:13;;;;;;;9.67;2.50;;;5.30;99.90;;;;;;5019076;28;20686;-60
2021/04/12 07:02:01;;;;;;;8.70;3.07;;;5.50;99.90;;;;;;5027208;28;20634;-60
2021/04/12 07:05:04;;;;;;;2.73;1.80;;;5.50;99.90;;;;;;5018994;28;20614;-60
2021/04/12 07:07:41;;;;;;;4.07;2.03;;;5.60;99.90;;;;;;5021874;28;20627;-59
2021/04/12 07:10:33;;;;;;;5.17;2.27;;;5.60;99.90;;;;;;5023317;28;21200;-59
2021/04/12 07:13:26;;;;;;;4.53;2.40;;;5.70;99.90;;;;;;5021055;28;20742;-60
2021/04/12 07:16:05;;;;;;;4.20;2.00;;;5.70;99.90;;;;;;5019417;28;20623;-60
2021/04/12 07:19:01;;;;;;;2.80;1.80;;;5.80;99.90;;;;;;5017160;28;20865;-60
2021/04/12 07:21:33;;;;;;;2.50;2.07;;;5.70;99.90;;;;;;5025793;28;20649;-59
2021/04/12 07:24:30;;;;;;;3.47;2.10;;;5.90;99.90;;;;;;5024450;28;20619;-60
2021/04/12 07:27:49;;;;;;;4.27;2.10;;;5.70;99.90;;;;;;5027807;28;20610;-60
2021/04/12 07:30:16;;;;;;;3.67;1.90;;;5.90;99.90;;;;;;5031528;28;20611;-61
2021/04/12 07:33:00;;;;;;;6.93;1.97;;;5.90;99.90;;;;;;5028112;28;20838;-59
2021/04/12 07:35:35;;;;;;;5.10;1.87;;;5.90;99.90;;;;;;5038855;28;20746;-60
2021/04/12 07:38:31;;;;;;;3.63;2.53;;;6.00;99.90;;;;;;5049565;28;20665;-61
2021/04/12 07:41:36;;;;;;;3.90;1.70;;;6.00;99.90;;;;;;5034620;28;20656;-60
2021/04/12 07:44:28;;;;;;;6.90;2.70;;;6.10;99.90;;;;;;5028278;28;20986;-60
2021/04/12 07:47:19;;;;;;;4.63;2.20;;;6.10;99.90;;;;;;5045214;28;20637;-61
2021/04/12 07:49:53;;;;;;;10.03;2.33;;;6.20;99.90;;;;;;5044489;28;24081;-59
2021/04/12 07:53:02;;;;;;;2.93;1.83;;;6.20;99.90;;;;;;5046723;28;20720;-60
2021/04/12 07:55:31;;;;;;;4.83;1.60;;;6.40;99.90;;;;;;5049863;28;21023;-61
2021/04/12 07:58:30;;;;;;;2.03;1.70;;;6.50;99.90;;;;;;5045795;28;20772;-60
2021/04/12 08:01:07;;;;;;;5.63;1.70;;;6.50;99.90;;;;;;5036928;28;20642;-60
2021/04/12 08:04:25;;;;;;;3.77;1.50;;;6.60;99.90;;;;;;5037253;28;21315;-59
2021/04/12 08:07:09;;;;;;;3.93;2.00;;;6.70;99.90;;;;;;5037979;28;20618;-60
2021/04/12 08:09:48;;;;;;;7.40;1.90;;;6.80;99.90;;;;;;5030459;28;20619;-60
2021/04/12 08:12:51;;;;;;;2.93;2.00;;;6.90;99.90;;;;;;5033091;28;20651;-60
2021/04/12 08:15:28;;;;;;;6.73;1.70;;;6.90;99.90;;;;;;5033218;28;20651;-60
2021/04/12 08:18:29;;;;;;;4.23;2.03;;;6.90;99.90;;;;;;5017577;28;20718;-59
2021/04/12 08:21:16;;;;;;;3.17;1.83;;;6.90;99.90;;;;;;5030896;28;20727;-60
2021/04/12 08:23:42;;;;;;;5.10;1.63;;;7.00;99.90;;;;;;5027946;28;20640;-60
2021/04/12 08:26:39;;;;;;;6.83;1.60;;;7.10;99.90;;;;;;5026827;28;21630;-61
2021/04/12 08:29:23;;;;;;;2.53;1.60;;;7.20;99.90;;;;;;5034167;28;20204;-60
2021/04/12 08:32:17;;;;;;;3.80;1.70;;;7.20;99.90;;;;;;5028175;28;20758;-59
2021/04/12 08:35:05;;;;;;;3.87;1.80;;;7.20;99.90;;;;;;5026968;28;20665;-60
2021/04/12 08:37:50;;;;;;;5.90;1.80;;;7.20;99.90;;;;;;5032102;28;20652;-59
2021/04/12 08:40:56;;;;;;;3.13;1.90;;;7.20;99.90;;;;;;5022252;28;20615;-59
2021/04/12 08:43:54;;;;;;;3.87;1.60;;;7.40;99.90;;;;;;5028651;28;20653;-60
2021/04/12 08:46:58;;;;;;;4.43;1.60;;;7.40;99.90;;;;;;5034472;28;20646;-63
2021/04/12 08:49:54;;;;;;;2.27;1.60;;;7.60;99.90;;;;;;5047743;28;20623;-60
2021/04/12 08:52:59;;;;;;;2.13;1.70;;;7.60;99.90;;;;;;5024340;28;20651;-61
2021/04/12 08:55:51;;;;;;;3.13;1.53;;;7.60;99.90;;;;;;5030659;28;21182;-65
2021/04/12 08:58:32;;;;;;;3.73;1.70;;;7.60;99.90;;;;;;5026443;28;20757;-61
2021/04/12 09:01:18;;;;;;;4.13;1.50;;;7.60;99.90;;;;;;5032587;28;20642;-61
2021/04/12 09:04:05;;;;;;;3.30;1.40;;;7.50;99.90;;;;;;5037652;28;20703;-61
2021/04/12 09:06:57;;;;;;;2.30;1.00;;;7.60;99.90;;;;;;5035930;28;20984;-61
2021/04/12 09:09:45;;;;;;;2.50;1.43;;;7.60;99.90;;;;;;5032292;28;20606;-59
2021/04/12 09:12:13;;;;;;;3.23;1.27;;;7.70;99.90;;;;;;5066203;22;21258;-62
2021/04/12 09:15:14;;;;;;;2.27;1.40;;;7.70;99.90;;;;;;5064382;28;20664;-63
2021/04/12 09:18:37;;;;;;;3.70;1.50;;;7.60;99.90;;;;;;5077806;28;20649;-65
2021/04/12 09:21:17;;;;;;;2.50;1.40;;;7.50;99.90;;;;;;5041754;28;20809;-65
2021/04/12 09:24:13;;;;;;;3.00;1.43;;;7.60;99.90;;;;;;5060494;28;20660;-64
2021/04/12 09:27:14;;;;;;;2.20;1.53;;;7.60;99.90;;;;;;5063065;28;20594;-65
2021/04/12 09:30:14;;;;;;;2.03;1.20;;;7.70;99.90;;;;;;5068147;28;20624;-63
2021/04/12 09:33:20;;;;;;;2.63;1.27;;;7.90;99.90;;;;;;5068120;28;20645;-65
2021/04/12 09:36:12;;;;;;;2.10;1.27;;;8.00;99.90;;;;;;5065113;28;20653;-63
2021/04/12 09:39:05;;;;;;;3.53;1.27;;;8.00;99.90;;;;;;5063352;28;20621;-63
2021/04/12 09:42:14;;;;;;;2.63;1.30;;;8.00;99.90;;;;;;5066303;28;20708;-64
2021/04/12 09:45:29;;;;;;;3.60;1.37;;;8.10;99.90;;;;;;5058088;28;20690;-64
2021/04/12 09:48:18;;;;;;;3.10;1.10;;;8.20;99.90;;;;;;5056983;28;21132;-63
2021/04/12 09:51:29;;;;;;;4.00;1.93;;;8.40;99.90;;;;;;5056610;28;20625;-65
2021/04/12 09:54:25;;;;;;;1.67;1.47;;;8.40;99.90;;;;;;5080633;28;20966;-63
2021/04/12 09:57:40;;;;;;;2.77;1.40;;;8.50;99.90;;;;;;5080030;28;20624;-64
2021/04/12 10:00:25;;;;;;;1.60;1.10;;;8.60;99.90;;;;;;5072605;28;20609;-63
2021/04/12 10:03:19;;;;;;;2.03;1.20;;;8.70;99.90;;;;;;5078600;28;20684;-61
2021/04/12 10:06:09;;;;;;;1.23;1.13;;;8.70;99.90;;;;;;5074293;28;20616;-64
2021/04/12 10:09:06;;;;;;;4.87;1.63;;;8.80;99.90;;;;;;5081946;28;20623;-64
2021/04/12 10:12:18;;;;;;;2.73;1.10;;;8.90;99.90;;;;;;5088285;28;21188;-64
2021/04/12 10:15:16;;;;;;;3.50;1.30;;;8.90;99.90;;;;;;5062343;28;20714;-63
2021/04/12 10:18:06;;;;;;;3.33;1.17;;;9.10;99.90;;;;;;5048842;28;20996;-63
2021/04/12 10:20:42;;;;;;;2.83;1.40;;;9.30;99.90;;;;;;5078360;28;20632;-62
2021/04/12 10:23:20;;;;;;;1.80;1.23;;;9.30;99.90;;;;;;5071211;28;20981;-62
2021/04/12 10:25:56;;;;;;;1.90;1.43;;;9.30;99.90;;;;;;5077368;28;20616;-64
2021/04/12 10:28:27;;;;;;;1.40;1.17;;;9.40;99.90;;;;;;5073753;28;21210;-64
2021/04/12 10:31:18;;;;;;;3.27;2.40;;;9.40;99.90;;;;;;5082369;28;20621;-63
2021/04/12 10:34:06;;;;;;;5.67;1.50;;;9.40;99.90;;;;;;5070412;28;20642;-64
2021/04/12 10:36:45;;;;;;;2.00;1.53;;;9.50;99.90;;;;;;5079984;28;21252;-65
2021/04/12 10:39:30;;;;;;;1.60;1.50;;;9.60;99.90;;;;;;5073926;28;20581;-63
2021/04/12 10:42:22;;;;;;;2.57;1.30;;;9.70;99.90;;;;;;5077899;28;20672;-63
2021/04/12 10:45:24;;;;;;;1.50;1.10;;;9.70;99.90;;;;;;5081604;28;20620;-62
2021/04/12 10:48:11;;;;;;;2.90;1.20;;;9.70;99.90;;;;;;5082533;28;20622;-65
2021/04/12 10:51:00;;;;;;;2.23;1.37;;;9.60;99.90;;;;;;5079824;28;20717;-63
2021/04/12 10:53:44;;;;;;;2.43;1.30;;;9.50;99.90;;;;;;5071391;28;20834;-62
2021/04/12 10:56:34;;;;;;;1.30;1.20;;;9.30;99.90;;;;;;5075537;28;21226;-63
2021/04/12 10:59:31;;;;;;;2.87;1.20;;;9.10;99.90;;;;;;5073768;28;20609;-63
2021/04/12 11:02:03;;;;;;;1.90;1.10;;;8.80;99.90;;;;;;5077261;28;20744;-63
2021/04/12 11:05:09;;;;;;;2.00;1.33;;;8.50;99.90;;;;;;5073820;28;20949;-64
2021/04/12 11:08:13;;;;;;;2.37;1.13;;;8.20;99.90;;;;;;5077258;28;20971;-62
2021/04/12 11:10:59;;;;;;;1.67;1.47;;;7.90;99.90;;;;;;5061157;28;20750;-62
2021/04/12 11:13:45;;;;;;;2.13;1.93;;;7.80;99.90;;;;;;5064977;28;20637;-62
2021/04/12 11:16:23;;;;;;;2.00;1.67;;;7.70;99.90;;;;;;5061525;28;20865;-63
2021/04/12 11:19:23;;;;;;;2.07;1.63;;;7.60;99.90;;;;;;5064084;28;20660;-63
2021/04/12 11:22:19;;;;;;;1.60;1.50;;;7.50;99.90;;;;;;5068001;28;21210;-62
2021/04/12 11:25:14;;;;;;;2.07;1.90;;;7.50;99.90;;;;;;5067116;28;21023;-64
2021/04/12 11:27:58;;;;;;;1.83;1.73;;;7.40;99.90;;;;;;5071338;28;20609;-63
2021/04/12 11:30:33;;;;;;;2.77;1.40;;;7.50;99.90;;;;;;5072433;28;20593;-65
2021/04/12 11:33:10;;;;;;;2.87;2.07;;;7.50;99.90;;;;;;5077133;28;20632;-64
2021/04/12 11:35:41;;;;;;;3.73;1.73;;;7.60;99.90;;;;;;5073787;28;20641;-62
2021/04/12 11:38:21;;;;;;;3.00;1.60;;;7.60;99.90;;;;;;5074059;28;20584;-63
2021/04/12 11:41:07;;;;;;;1.90;1.80;;;7.70;99.90;;;;;;5094569;28;20707;-64
2021/04/12 11:43:36;;;;;;;2.50;1.50;;;7.60;99.90;;;;;;5062022;28;21214;-64
2021/04/12 11:46:11;;;;;;;3.00;1.90;;;7.70;99.90;;;;;;5089361;28;20613;-64
2021/04/12 11:48:46;;;;;;;3.13;1.80;;;7.70;99.90;;;;;;5078026;28;20582;-63
2021/04/12 11:51:32;;;;;;;1.83;1.43;;;7.80;99.90;;;;;;5078110;28;20612;-63
2021/04/12 11:54:03;;;;;;;2.67;1.73;;;7.90;99.90;;;;;;5066921;28;20659;-62
2021/04/12 11:56:47;;;;;;;1.73;1.50;;;8.00;99.90;;;;;;5070596;28;20588;-62
2021/04/12 11:59:34;;;;;;;2.20;1.90;;;8.20;99.90;;;;;;5070563;28;20691;-64
2021/04/12 12:02:27;;;;;;;2.40;1.70;;;8.30;99.90;;;;;;5074391;28;20648;-63
2021/04/12 12:05:10;;;;;;;1.63;1.53;;;8.50;99.90;;;;;;5084315;28;20612;-65
2021/04/12 12:07:51;;;;;;;4.77;1.80;;;9.00;99.90;;;;;;5067135;28;21530;-63
2021/04/12 12:10:25;;;;;;;2.50;1.70;;;8.80;99.90;;;;;;5072998;28;20624;-64
2021/04/12 12:13:16;;;;;;;1.80;1.70;;;8.80;99.90;;;;;;5083941;28;20636;-63
2021/04/12 12:16:18;;;;;;;3.77;1.90;;;8.70;99.90;;;;;;5071755;28;21218;-63
2021/04/12 12:18:57;;;;;;;2.13;1.70;;;8.70;99.90;;;;;;5083644;28;20616;-62
2021/04/12 12:21:44;;;;;;;2.70;1.80;;;8.70;99.90;;;;;;5081120;28;20620;-64
2021/04/12 12:24:46;;;;;;;2.10;1.80;;;8.70;99.90;;;;;;5086049;28;20676;-65
2021/04/12 12:27:31;;;;;;;2.10;1.97;;;8.80;99.90;;;;;;5085916;28;20660;-64
2021/04/12 12:30:10;;;;;;;2.13;1.57;;;9.20;99.90;;;;;;5087448;28;21203;-63
2021/04/12 12:33:00;;;;;;;3.43;1.80;;;9.40;99.90;;;;;;5079846;28;20636;-64
2021/04/12 12:35:51;;;;;;;2.40;2.20;;;9.50;99.90;;;;;;5073537;28;20701;-64
2021/04/12 12:38:45;;;;;;;2.43;2.00;;;9.50;99.90;;;;;;5076492;28;20600;-64
2021/04/12 12:41:21;;;;;;;1.57;1.47;;;9.50;99.90;;;;;;5078179;28;20608;-64
2021/04/12 12:43:50;;;;;;;1.83;1.73;;;9.40;99.90;;;;;;5058702;28;20658;-63
2021/04/12 12:46:28;;;;;;;2.20;2.00;;;9.50;99.90;;;;;;5058623;28;20756;-65
2021/04/12 12:48:57;;;;;;;2.27;1.70;;;9.50;99.90;;;;;;5064368;28;20946;-61
2021/04/12 12:51:31;;;;;;;1.67;1.57;;;9.50;99.90;;;;;;5061931;28;20673;-63
2021/04/12 12:54:38;;;;;;;4.57;1.83;;;9.50;99.90;;;;;;5060736;28;20609;-63
2021/04/12 12:57:06;;;;;;;2.07;1.60;;;9.40;99.90;;;;;;5055887;28;20628;-65
2021/04/12 12:59:38;;;;;;;3.33;1.67;;;9.40;99.90;;;;;;5064370;28;20606;-69
2021/04/12 13:02:26;;;;;;;1.83;1.60;;;9.50;99.90;;;;;;5074418;28;20651;-66
2021/04/12 13:05:05;;;;;;;2.67;1.50;;;9.60;99.90;;;;;;5054357;28;21056;-67
2021/04/12 13:07:32;;;;;;;1.70;1.60;;;9.70;99.90;;;;;;5042987;28;20686;-69
2021/04/12 13:10:23;;;;;;;3.00;1.80;;;9.70;99.90;;;;;;5062490;28;20617;-69
2021/04/12 13:12:57;;;;;;;1.57;1.43;;;10.00;99.90;;;;;;5048159;28;20637;-66
2021/04/12 13:15:39;;;;;;;1.60;1.40;;;10.10;99.90;;;;;;5048706;28;21072;-66
2021/04/12 13:18:12;;;;;;;5.67;1.87;;;10.20;99.90;;;;;;5052004;28;20957;-68
2021/04/12 13:20:44;;;;;;;1.97;1.60;;;10.50;99.90;;;;;;5058782;28;20591;-66
2021/04/12 13:23:37;;;;;;;2.30;1.90;;;10.80;99.90;;;;;;5051908;28;20749;-66
2021/04/12 13:26:24;;;;;;;2.47;1.73;;;11.20;99.90;;;;;;5055938;28;20609;-66
2021/04/12 13:28:51;;;;;;;4.07;1.80;;;11.40;99.90;;;;;;5059493;28;20667;-66
2021/04/12 13:31:43;;;;;;;1.53;1.30;;;11.70;99.90;;;;;;5054709;28;20628;-69
2021/04/12 13:34:37;;;;;;;4.93;1.70;;;12.00;99.90;;;;;;5049058;28;20874;-66
2021/04/12 13:37:18;;;;;;;2.93;1.20;;;12.40;99.90;;;;;;5061510;28;20810;-65
2021/04/12 13:39:50;;;;;;;3.70;1.30;;;12.80;99.90;;;;;;5054980;28;20602;-67
2021/04/12 13:42:24;;;;;;;1.13;1.03;;;13.10;99.90;;;;;;5053295;28;21571;-65
2021/04/12 13:45:00;;;;;;;1.53;1.10;;;13.30;99.90;;;;;;5055216;28;20713;-66
2021/04/12 13:47:41;;;;;;;2.63;0.90;;;13.50;99.90;;;;;;5054305;28;20705;-68
2021/04/12 13:50:30;;;;;;;2.23;0.80;;;13.80;99.90;;;;;;5054034;28;20656;-66
2021/04/12 13:53:05;;;;;;;2.30;1.13;;;14.10;99.80;;;;;;5067951;28;20828;-69
2021/04/12 13:55:42;;;;;;;1.10;1.00;;;14.10;96.10;;;;;;5068768;28;20612;-65
2021/04/12 13:58:14;;;;;;;2.83;1.53;;;14.00;95.10;;;;;;5074724;28;20604;-65
2021/04/12 14:00:47;;;;;;;7.27;1.60;;;14.10;95.40;;;;;;5059525;28;21163;-65
2021/04/12 14:03:25;;;;;;;1.47;1.27;;;14.00;95.00;;;;;;5071607;28;20751;-67
2021/04/12 14:06:24;;;;;;;1.47;1.37;;;13.90;97.70;;;;;;5072478;28;20616;-68
2021/04/12 14:09:07;;;;;;;3.17;1.30;;;13.50;97.50;;;;;;5064758;28;20788;-65
2021/04/12 14:11:56;;;;;;;1.30;1.20;;;13.00;97.60;;;;;;5068874;28;20721;-68
2021/04/12 14:14:24;;;;;;;1.37;1.27;;;12.70;98.60;;;;;;5071560;28;20785;-70
2021/04/12 14:17:10;;;;;;;2.83;1.50;;;12.40;99.60;;;;;;5074884;28;20600;-70
2021/04/12 14:19:47;;;;;;;2.20;1.33;;;12.20;99.40;;;;;;5081523;28;20620;-67
2021/04/12 14:22:21;;;;;;;1.47;1.30;;;11.90;99.40;;;;;;5070755;28;21246;-68
2021/04/12 14:24:57;;;;;;;1.90;1.23;;;11.80;99.90;;;;;;5062499;28;20703;-67
2021/04/12 14:27:28;;;;;;;3.70;1.80;;;11.60;99.90;;;;;;5053049;28;20652;-69
2021/04/12 14:30:05;;;;;;;2.80;1.47;;;11.70;99.90;;;;;;5057006;28;20633;-66
2021/04/12 14:32:36;;;;;;;2.07;1.20;;;12.00;99.90;;;;;;5052244;28;20656;-66
2021/04/12 14:35:04;;;;;;;3.80;1.43;;;12.30;99.90;;;;;;5058442;28;20654;-67
2021/04/12 14:37:33;;;;;;;1.30;1.20;;;12.50;99.90;;;;;;5062067;28;20684;-67
2021/04/12 14:40:31;;;;;;;2.37;1.20;;;12.80;99.90;;;;;;5064489;28;20938;-67